createdAt,value
2023-05-17T00:00:31.328Z,74.49
2023-05-17T00:01:31.293Z,74.60
2023-05-17T00:02:31.346Z,75.21
2023-05-17T00:03:31.297Z,74.49
2023-05-17T00:04:31.334Z,74.60
2023-05-17T00:05:31.227Z,75.01
2023-05-17T00:06:31.240Z,74.90
2023-05-17T00:07:31.209Z,74.70
2023-05-17T00:08:31.207Z,75.01
2023-05-17T00:09:31.235Z,75.42
2023-05-17T00:10:31.185Z,75.01
2023-05-17T00:11:31.154Z,75.31
2023-05-17T00:12:31.196Z,76.24
2023-05-17T00:13:31.146Z,75.93
2023-05-17T00:14:31.109Z,76.03
2023-05-17T00:15:31.118Z,75.62
2023-05-17T00:16:31.065Z,75.73
2023-05-17T00:17:31.171Z,75.62
2023-05-17T00:18:31.114Z,75.73
2023-05-17T00:19:31.062Z,75.73
2023-05-17T00:20:31.064Z,76.14
2023-05-17T00:21:31.051Z,75.86
2023-05-17T00:22:30.995Z,76.17
2023-05-17T00:23:31.021Z,76.48
2023-05-17T00:24:31.032Z,76.37
2023-05-17T00:25:31.221Z,76.48
2023-05-17T00:26:30.945Z,76.07
2023-05-17T00:27:30.962Z,76.07
2023-05-17T00:28:30.935Z,76.17
2023-05-17T00:29:30.927Z,76.27
2023-05-17T00:30:30.892Z,76.17
2023-05-17T00:31:30.939Z,76.89
2023-05-17T00:32:30.903Z,76.48
2023-05-17T00:33:30.867Z,76.37
2023-05-17T00:34:30.874Z,76.48
2023-05-17T00:35:31.000Z,76.17
2023-05-17T00:36:30.816Z,76.68
2023-05-17T00:37:30.823Z,77.20
2023-05-17T00:38:30.783Z,76.99
2023-05-17T00:39:30.852Z,77.09
2023-05-17T00:40:30.772Z,77.50
2023-05-17T00:41:30.779Z,77.29
2023-05-17T00:42:30.733Z,77.50
2023-05-17T00:43:30.777Z,77.40
2023-05-17T00:44:30.707Z,77.95
2023-05-17T00:45:30.732Z,77.84
2023-05-17T00:46:30.706Z,77.64
2023-05-17T00:47:30.774Z,77.84
2023-05-17T00:48:30.772Z,78.16
2023-05-17T00:49:30.680Z,77.95
2023-05-17T00:50:30.661Z,78.16
2023-05-17T00:51:30.640Z,78.25
2023-05-17T00:52:30.634Z,77.95
2023-05-17T00:53:30.676Z,77.74
2023-05-17T00:54:30.572Z,77.64
2023-05-17T00:55:30.794Z,77.74
2023-05-17T00:56:30.570Z,77.84
2023-05-17T00:57:30.583Z,77.74
2023-05-17T00:58:30.519Z,78.05
2023-05-17T00:59:30.565Z,77.95
2023-05-17T01:00:30.529Z,77.95
2023-05-17T01:01:30.535Z,78.16
2023-05-17T01:02:30.522Z,78.36
2023-05-17T01:03:30.585Z,78.36
2023-05-17T01:04:30.489Z,78.77
2023-05-17T01:05:30.612Z,78.46
2023-05-17T01:06:30.452Z,78.87
2023-05-17T01:07:30.432Z,78.67
2023-05-17T01:08:30.383Z,78.87
2023-05-17T01:09:30.408Z,78.77
2023-05-17T01:10:30.367Z,78.67
2023-05-17T01:11:30.399Z,78.87
2023-05-17T01:12:30.363Z,78.77
2023-05-17T01:13:30.361Z,78.25
2023-05-17T01:14:30.321Z,78.16
2023-05-17T01:15:30.460Z,78.67
2023-05-17T01:16:30.305Z,78.77
2023-05-17T01:17:30.416Z,78.97
2023-05-17T01:18:30.325Z,78.97
2023-05-17T01:19:30.527Z,79.42
2023-05-17T01:20:30.288Z,79.42
2023-05-17T01:21:30.249Z,79.01
2023-05-17T01:22:30.239Z,79.01
2023-05-17T01:23:30.241Z,79.08
2023-05-17T01:24:30.197Z,78.81
2023-05-17T01:25:30.409Z,79.22
2023-05-17T01:26:30.165Z,79.52
2023-05-17T01:27:30.170Z,79.11
2023-05-17T01:28:30.230Z,79.52
2023-05-17T01:29:30.150Z,80.14
2023-05-17T01:30:30.102Z,80.04
2023-05-17T01:31:30.124Z,80.14
2023-05-17T01:32:30.133Z,80.86
2023-05-17T01:33:30.288Z,80.86
2023-05-17T01:34:30.094Z,81.27
2023-05-17T01:35:30.237Z,81.71
2023-05-17T01:36:30.091Z,81.62
2023-05-17T01:37:30.035Z,81.82
2023-05-17T01:38:30.055Z,81.82
2023-05-17T01:39:30.020Z,81.92
2023-05-17T01:40:29.984Z,82.03
2023-05-17T01:41:30.034Z,82.13
2023-05-17T01:42:29.956Z,82.03
2023-05-17T01:43:29.962Z,82.23
2023-05-17T01:44:31.319Z,82.43
2023-05-17T01:45:30.193Z,82.54
2023-05-17T01:46:29.915Z,81.82
2023-05-17T01:47:29.937Z,82.13
2023-05-17T01:48:29.918Z,81.82
2023-05-17T01:49:29.912Z,81.92
2023-05-17T01:50:29.865Z,82.13
2023-05-17T01:51:29.897Z,81.82
2023-05-17T01:52:29.837Z,81.62
2023-05-17T01:53:29.834Z,82.03
2023-05-17T01:54:29.838Z,82.03
2023-05-17T01:55:30.003Z,82.23
2023-05-17T01:56:29.766Z,82.54
2023-05-17T01:57:29.835Z,83.09
2023-05-17T01:58:29.759Z,83.29
2023-05-17T01:59:29.783Z,83.09
2023-05-17T02:00:29.740Z,83.50
2023-05-17T02:01:29.733Z,83.61
2023-05-17T02:02:29.766Z,83.40
2023-05-17T02:03:29.767Z,83.29
2023-05-17T02:04:29.685Z,83.70
2023-05-17T02:05:30.015Z,83.91
2023-05-17T02:06:29.644Z,83.91
2023-05-17T02:07:29.693Z,83.91
2023-05-17T02:08:29.613Z,84.12
2023-05-17T02:09:29.620Z,84.32
2023-05-17T02:10:29.617Z,84.05
2023-05-17T02:11:29.596Z,84.05
2023-05-17T02:12:29.602Z,84.05
2023-05-17T02:13:29.584Z,84.56
2023-05-17T02:14:29.556Z,84.56
2023-05-17T02:15:29.796Z,84.77
2023-05-17T02:16:29.537Z,84.56
2023-05-17T02:17:29.667Z,84.05
2023-05-17T02:18:29.585Z,83.75
2023-05-17T02:19:29.662Z,84.26
2023-05-17T02:20:29.460Z,84.26
2023-05-17T02:21:29.536Z,83.64
2023-05-17T02:22:29.458Z,84.05
2023-05-17T02:23:29.448Z,84.47
2023-05-17T02:24:29.411Z,84.47
2023-05-17T02:25:29.705Z,84.67
2023-05-17T02:26:29.394Z,84.88
2023-05-17T02:27:29.443Z,84.77
2023-05-17T02:28:29.381Z,84.88
2023-05-17T02:29:29.369Z,84.98
2023-05-17T02:30:29.345Z,85.18
2023-05-17T02:31:29.339Z,85.74
2023-05-17T02:32:29.422Z,85.84
2023-05-17T02:33:29.495Z,86.05
2023-05-17T02:34:29.282Z,85.84
2023-05-17T02:35:29.501Z,85.94
2023-05-17T02:36:29.261Z,85.63
2023-05-17T02:37:29.259Z,85.63
2023-05-17T02:38:29.263Z,85.12
2023-05-17T02:39:29.276Z,85.53
2023-05-17T02:40:29.206Z,85.39
2023-05-17T02:41:29.221Z,84.77
2023-05-17T02:42:29.183Z,85.08
2023-05-17T02:43:29.197Z,84.77
2023-05-17T02:44:29.159Z,84.77
2023-05-17T02:45:29.410Z,84.88
2023-05-17T02:46:29.114Z,84.67
2023-05-17T02:47:29.248Z,84.88
2023-05-17T02:48:29.095Z,84.67
2023-05-17T02:49:29.132Z,84.56
2023-05-17T02:50:29.085Z,84.77
2023-05-17T02:51:29.110Z,85.08
2023-05-17T02:52:29.046Z,85.39
2023-05-17T02:53:29.077Z,85.49
2023-05-17T02:54:29.052Z,85.28
2023-05-17T02:55:29.304Z,85.49
2023-05-17T02:56:29.021Z,85.60
2023-05-17T02:57:29.009Z,85.80
2023-05-17T02:58:28.979Z,86.00
2023-05-17T02:59:28.975Z,86.11
2023-05-17T03:00:28.941Z,86.35
2023-05-17T03:01:28.966Z,86.56
2023-05-17T03:02:29.007Z,86.66
2023-05-17T03:03:29.114Z,86.25
2023-05-17T03:04:28.932Z,86.25
2023-05-17T03:05:29.078Z,86.66
2023-05-17T03:06:28.875Z,86.56
2023-05-17T03:07:28.875Z,86.77
2023-05-17T03:08:28.882Z,86.97
2023-05-17T03:09:28.850Z,86.97
2023-05-17T03:10:28.958Z,87.07
2023-05-17T03:11:28.845Z,87.07
2023-05-17T03:12:29.640Z,87.07
2023-05-17T03:13:28.796Z,86.97
2023-05-17T03:14:28.787Z,87.07
2023-05-17T03:15:28.934Z,87.34
2023-05-17T03:16:28.846Z,87.34
2023-05-17T03:17:28.887Z,87.24
2023-05-17T03:18:28.811Z,87.13
2023-05-17T03:19:28.745Z,87.13
2023-05-17T03:20:28.700Z,87.13
2023-05-17T03:21:28.721Z,86.93
2023-05-17T03:22:28.655Z,86.72
2023-05-17T03:23:28.705Z,86.66
2023-05-17T03:24:28.649Z,86.87
2023-05-17T03:25:29.030Z,87.18
2023-05-17T03:26:28.616Z,87.59
2023-05-17T03:27:28.648Z,87.59
2023-05-17T03:28:28.638Z,87.28
2023-05-17T03:29:28.596Z,87.07
2023-05-17T03:30:28.577Z,86.77
2023-05-17T03:31:28.565Z,86.66
2023-05-17T03:32:28.555Z,87.13
2023-05-17T03:33:28.635Z,87.24
2023-05-17T03:34:28.517Z,87.24
2023-05-17T03:35:28.832Z,87.04
2023-05-17T03:36:28.551Z,86.52
2023-05-17T03:37:28.509Z,86.42
2023-05-17T03:38:28.443Z,86.32
2023-05-17T03:39:28.476Z,86.52
2023-05-17T03:40:28.436Z,86.72
2023-05-17T03:41:28.434Z,86.93
2023-05-17T03:42:28.397Z,87.04
2023-05-17T03:43:28.404Z,86.72
2023-05-17T03:44:28.367Z,86.83
2023-05-17T03:45:28.617Z,87.45
2023-05-17T03:46:28.347Z,87.59
2023-05-17T03:47:28.396Z,87.28
2023-05-17T03:48:28.378Z,87.38
2023-05-17T03:49:28.347Z,87.28
2023-05-17T03:50:28.304Z,87.49
2023-05-17T03:51:28.335Z,87.69
2023-05-17T03:52:28.317Z,87.69
2023-05-17T03:53:28.277Z,87.85
2023-05-17T03:54:28.247Z,88.27
2023-05-17T03:55:28.550Z,88.47
2023-05-17T03:56:28.227Z,88.06
2023-05-17T03:57:28.225Z,87.85
2023-05-17T03:58:28.191Z,87.65
2023-05-17T03:59:28.189Z,87.34
2023-05-17T04:00:28.181Z,86.83
2023-05-17T04:01:28.187Z,86.52
2023-05-17T04:02:28.162Z,86.21
2023-05-17T04:03:28.151Z,86.11
2023-05-17T04:04:28.209Z,86.21
2023-05-17T04:05:28.327Z,86.11
2023-05-17T04:06:28.110Z,85.90
2023-05-17T04:07:28.119Z,85.90
2023-05-17T04:08:28.060Z,86.32
2023-05-17T04:09:28.104Z,86.42
2023-05-17T04:10:28.050Z,86.58
2023-05-17T04:11:28.048Z,86.58
2023-05-17T04:12:28.050Z,86.48
2023-05-17T04:13:28.037Z,86.58
2023-05-17T04:14:27.987Z,86.38
2023-05-17T04:15:28.245Z,86.38
2023-05-17T04:16:27.991Z,85.86
2023-05-17T04:17:28.031Z,85.80
2023-05-17T04:18:27.968Z,85.90
2023-05-17T04:19:28.040Z,86.21
2023-05-17T04:20:27.913Z,86.62
2023-05-17T04:21:27.925Z,86.72
2023-05-17T04:22:27.910Z,86.58
2023-05-17T04:23:27.922Z,86.07
2023-05-17T04:24:27.849Z,86.17
2023-05-17T04:25:28.108Z,85.97
2023-05-17T04:26:27.835Z,85.66
2023-05-17T04:27:27.846Z,85.55
2023-05-17T04:28:27.836Z,85.25
2023-05-17T04:29:27.826Z,85.46
2023-05-17T04:30:27.809Z,85.97
2023-05-17T04:31:27.794Z,85.97
2023-05-17T04:32:27.820Z,85.55
2023-05-17T04:33:27.912Z,85.76
2023-05-17T04:34:27.774Z,85.72
2023-05-17T04:35:27.980Z,85.62
2023-05-17T04:36:27.738Z,85.31
2023-05-17T04:37:28.338Z,85.11
2023-05-17T04:38:27.726Z,85.62
2023-05-17T04:39:29.489Z,85.93
2023-05-17T04:40:27.663Z,86.13
2023-05-17T04:41:27.637Z,86.03
2023-05-17T04:42:27.666Z,85.82
2023-05-17T04:43:27.622Z,85.62
2023-05-17T04:44:27.623Z,85.21
2023-05-17T04:45:27.849Z,85.31
2023-05-17T04:46:27.615Z,85.62
2023-05-17T04:47:27.630Z,85.93
2023-05-17T04:48:27.765Z,85.72
2023-05-17T04:49:27.545Z,85.62
2023-05-17T04:50:27.539Z,85.62
2023-05-17T04:51:27.525Z,85.41
2023-05-17T04:52:27.534Z,85.41
2023-05-17T04:53:27.513Z,85.62
2023-05-17T04:54:27.494Z,85.68
2023-05-17T04:55:27.707Z,85.58
2023-05-17T04:56:27.498Z,85.62
2023-05-17T04:57:27.471Z,85.82
2023-05-17T04:58:27.454Z,86.54
2023-05-17T04:59:27.404Z,87.26
2023-05-17T05:00:27.436Z,87.05
2023-05-17T05:01:27.386Z,87.26
2023-05-17T05:02:27.435Z,87.57
2023-05-17T05:03:27.492Z,87.46
2023-05-17T05:04:27.406Z,87.77
2023-05-17T05:05:27.577Z,88.39
2023-05-17T05:06:27.361Z,88.80
2023-05-17T05:07:27.296Z,88.90
2023-05-17T05:08:27.330Z,88.70
2023-05-17T05:09:27.277Z,88.80
2023-05-17T05:10:27.304Z,88.80
2023-05-17T05:11:27.252Z,88.59
2023-05-17T05:12:27.290Z,88.59
2023-05-17T05:13:27.249Z,88.35
2023-05-17T05:14:27.231Z,87.84
2023-05-17T05:15:27.451Z,87.53
2023-05-17T05:16:27.197Z,87.53
2023-05-17T05:17:27.247Z,87.53
2023-05-17T05:18:27.278Z,87.63
2023-05-17T05:19:27.166Z,87.63
2023-05-17T05:20:28.045Z,87.43
2023-05-17T05:21:27.121Z,87.22
2023-05-17T05:22:27.165Z,87.02
2023-05-17T05:23:27.119Z,86.91
2023-05-17T05:24:27.105Z,86.81
2023-05-17T05:25:27.301Z,86.36
2023-05-17T05:26:27.070Z,86.46
2023-05-17T05:27:27.056Z,86.57
2023-05-17T05:28:27.073Z,86.25
2023-05-17T05:29:27.013Z,86.05
2023-05-17T05:30:27.083Z,86.05
2023-05-17T05:31:26.984Z,86.05
2023-05-17T05:32:27.020Z,86.05
2023-05-17T05:33:27.018Z,86.05
2023-05-17T05:34:26.967Z,86.36
2023-05-17T05:35:27.016Z,86.25
2023-05-17T05:36:26.945Z,86.22
2023-05-17T05:37:26.910Z,85.91
2023-05-17T05:38:26.943Z,85.71
2023-05-17T05:39:26.903Z,86.22
2023-05-17T05:40:27.160Z,86.36
2023-05-17T05:41:26.846Z,85.54
2023-05-17T05:42:26.863Z,86.57
2023-05-17T05:43:26.828Z,86.98
2023-05-17T05:44:26.846Z,87.24
2023-05-17T05:45:26.857Z,86.83
2023-05-17T05:46:26.812Z,86.42
2023-05-17T05:47:26.811Z,86.22
2023-05-17T05:48:26.894Z,86.42
2023-05-17T05:49:26.767Z,87.45
2023-05-17T05:50:27.061Z,86.52
2023-05-17T05:51:26.746Z,86.63
2023-05-17T05:52:26.730Z,86.93
2023-05-17T05:53:26.730Z,87.45
2023-05-17T05:54:26.723Z,86.83
2023-05-17T05:55:26.691Z,84.17
2023-05-17T05:56:26.704Z,84.53
2023-05-17T05:57:26.667Z,84.44
2023-05-17T05:58:26.683Z,84.64
2023-05-17T05:59:26.647Z,84.95
2023-05-17T06:00:26.775Z,85.15
2023-05-17T06:01:26.605Z,84.12
2023-05-17T06:02:26.630Z,84.12
2023-05-17T06:03:26.565Z,83.51
2023-05-17T06:04:36.333Z,83.51
2023-05-17T06:05:26.598Z,83.20
2023-05-17T06:06:26.642Z,83.10
2023-05-17T06:07:26.528Z,83.82
2023-05-17T06:08:26.563Z,82.90
2023-05-17T06:09:26.544Z,82.49
2023-05-17T06:10:26.590Z,83.41
2023-05-17T06:11:26.473Z,83.31
2023-05-17T06:12:26.487Z,84.19
2023-05-17T06:13:26.459Z,83.41
2023-05-17T06:14:26.830Z,83.10
2023-05-17T06:15:26.469Z,82.28
2023-05-17T06:16:26.423Z,82.39
2023-05-17T06:17:26.453Z,83.31
2023-05-17T06:18:26.500Z,82.79
2023-05-17T06:19:26.534Z,83.27
2023-05-17T06:20:26.641Z,81.77
2023-05-17T06:21:26.362Z,82.14
2023-05-17T06:22:26.365Z,82.35
2023-05-17T06:23:26.321Z,83.17
2023-05-17T06:24:26.354Z,83.37
2023-05-17T06:25:26.295Z,83.98
2023-05-17T06:26:26.303Z,83.78
2023-05-17T06:27:26.257Z,83.17
2023-05-17T06:28:26.281Z,83.54
2023-05-17T06:29:26.536Z,84.25
2023-05-17T06:30:26.322Z,83.44
2023-05-17T06:31:26.204Z,82.71
2023-05-17T06:32:26.259Z,82.62
2023-05-17T06:33:26.268Z,82.21
2023-05-17T06:34:26.214Z,82.41
2023-05-17T06:35:26.355Z,82.41
2023-05-17T06:36:26.183Z,81.49
2023-05-17T06:37:26.190Z,80.98
2023-05-17T06:38:26.162Z,82.00
2023-05-17T06:39:26.118Z,82.00
2023-05-17T06:40:26.153Z,81.90
2023-05-17T06:41:26.074Z,82.41
2023-05-17T06:42:26.087Z,82.51
2023-05-17T06:43:26.067Z,82.10
2023-05-17T06:44:26.072Z,81.90
2023-05-17T06:45:26.043Z,82.31
2023-05-17T06:46:26.024Z,81.70
2023-05-17T06:47:26.109Z,82.41
2023-05-17T06:48:26.134Z,82.31
2023-05-17T06:49:26.065Z,83.44
2023-05-17T06:50:26.062Z,82.10
2023-05-17T06:51:25.993Z,81.49
2023-05-17T06:52:25.952Z,81.38
2023-05-17T06:53:25.927Z,82.00
2023-05-17T06:54:25.943Z,82.10
2023-05-17T06:55:25.929Z,82.41
2023-05-17T06:56:25.905Z,82.68
2023-05-17T06:57:25.873Z,81.96
2023-05-17T06:58:25.953Z,80.63
2023-05-17T06:59:25.839Z,80.33
2023-05-17T07:00:25.853Z,80.33
2023-05-17T07:01:25.832Z,81.04
2023-05-17T07:02:25.853Z,81.96
2023-05-17T07:03:25.916Z,81.45
2023-05-17T07:04:25.880Z,81.65
2023-05-17T07:05:25.846Z,81.56
2023-05-17T07:06:25.762Z,80.63
2023-05-17T07:07:25.743Z,80.94
2023-05-17T07:08:25.778Z,80.60
2023-05-17T07:09:26.587Z,81.93
2023-05-17T07:10:25.748Z,80.46
2023-05-17T07:11:25.685Z,80.05
2023-05-17T07:12:25.712Z,81.17
2023-05-17T07:13:25.724Z,80.01
2023-05-17T07:14:25.714Z,79.29
2023-05-17T07:15:25.640Z,79.16
2023-05-17T07:16:25.750Z,79.66
2023-05-17T07:17:25.617Z,76.67
2023-05-17T07:18:25.687Z,79.73
2023-05-17T07:19:25.662Z,77.38
2023-05-17T07:20:25.683Z,78.37
2023-05-17T07:21:25.544Z,78.57
2023-05-17T07:22:25.576Z,76.84
2023-05-17T07:23:25.532Z,78.16
2023-05-17T07:24:25.539Z,79.69
2023-05-17T07:25:25.557Z,77.38
2023-05-17T07:26:25.510Z,76.77
2023-05-17T07:27:25.485Z,76.06
2023-05-17T07:28:25.489Z,76.87
2023-05-17T07:29:25.477Z,75.78
2023-05-17T07:30:25.662Z,75.78
2023-05-17T07:31:25.414Z,75.82
2023-05-17T07:32:25.457Z,75.00
2023-05-17T07:33:25.409Z,76.64
2023-05-17T07:34:25.514Z,75.41
2023-05-17T07:35:25.388Z,76.43
2023-05-17T07:36:25.429Z,77.25
2023-05-17T07:37:25.381Z,77.45
2023-05-17T07:38:25.417Z,77.35
2023-05-17T07:39:25.315Z,78.68
2023-05-17T07:40:25.443Z,79.60
2023-05-17T07:41:25.288Z,77.83
2023-05-17T07:42:25.292Z,76.19
2023-05-17T07:43:25.270Z,77.52
2023-05-17T07:44:25.292Z,75.17
2023-05-17T07:45:25.238Z,75.99
2023-05-17T07:46:25.300Z,75.17
2023-05-17T07:47:25.231Z,76.29
2023-05-17T07:48:25.300Z,75.27
2023-05-17T07:49:25.223Z,74.87
2023-05-17T07:50:25.301Z,74.05
2023-05-17T07:51:25.173Z,75.24
2023-05-17T07:52:25.184Z,75.04
2023-05-17T07:53:25.117Z,74.01
2023-05-17T07:54:25.137Z,74.63
2023-05-17T07:55:25.116Z,73.91
2023-05-17T07:56:25.149Z,73.30
2023-05-17T07:57:25.078Z,74.22
2023-05-17T07:58:25.083Z,74.93
2023-05-17T07:59:25.680Z,72.99
2023-05-17T08:00:25.068Z,75.24
2023-05-17T08:01:25.045Z,75.13
2023-05-17T08:02:25.067Z,75.71
2023-05-17T08:03:25.015Z,72.89
2023-05-17T08:04:25.042Z,72.69
2023-05-17T08:05:25.011Z,73.54
2023-05-17T08:06:25.070Z,74.93
2023-05-17T08:07:24.943Z,74.73
2023-05-17T08:08:24.968Z,75.34
2023-05-17T08:09:25.014Z,74.73
2023-05-17T08:10:24.969Z,72.69
2023-05-17T08:11:24.909Z,72.89
2023-05-17T08:12:24.905Z,73.98
2023-05-17T08:13:24.899Z,74.15
2023-05-17T08:14:24.903Z,73.13
2023-05-17T08:15:24.853Z,72.89
2023-05-17T08:16:24.856Z,74.58
2023-05-17T08:17:24.890Z,73.36
2023-05-17T08:18:24.893Z,72.86
2023-05-17T08:19:24.903Z,71.12
2023-05-17T08:20:24.795Z,69.22
2023-05-17T08:21:25.296Z,69.22
2023-05-17T08:22:24.796Z,72.28
2023-05-17T08:23:24.751Z,73.06
2023-05-17T08:24:24.754Z,71.33
2023-05-17T08:25:24.729Z,71.12
2023-05-17T08:26:24.714Z,69.63
2023-05-17T08:27:24.685Z,70.75
2023-05-17T08:28:24.710Z,72.28
2023-05-17T08:29:24.646Z,73.06
2023-05-17T08:31:24.626Z,71.43
2023-05-17T08:32:24.680Z,71.50
2023-05-17T08:33:24.672Z,70.45
2023-05-17T08:34:24.646Z,69.43
2023-05-17T08:35:27.709Z,67.77
2023-05-17T08:36:25.114Z,66.11
2023-05-17T08:37:24.572Z,66.41
2023-05-17T08:38:24.603Z,66.49
2023-05-17T08:39:24.517Z,66.28
2023-05-17T08:40:24.701Z,65.97
2023-05-17T08:41:24.513Z,68.69
2023-05-17T08:42:24.526Z,68.28
2023-05-17T08:43:26.892Z,68.35
2023-05-17T08:44:24.492Z,67.44
2023-05-17T08:45:25.066Z,64.70
2023-05-17T08:46:24.521Z,67.16
2023-05-17T08:47:24.509Z,64.01
2023-05-17T08:48:24.513Z,65.13
2023-05-17T08:49:24.498Z,67.47
2023-05-17T08:50:24.425Z,64.70
2023-05-17T08:51:24.432Z,63.28
2023-05-17T08:52:24.351Z,65.00
2023-05-17T08:53:24.445Z,68.15
2023-05-17T08:54:24.333Z,64.18
2023-05-17T08:55:24.327Z,65.20
2023-05-17T08:56:24.348Z,63.17
2023-05-17T08:57:24.300Z,65.78
2023-05-17T08:58:24.283Z,61.72
2023-05-17T08:59:24.281Z,60.83
2023-05-17T09:00:24.256Z,63.17
2023-05-17T09:01:26.043Z,62.26
2023-05-17T09:02:24.326Z,63.88
2023-05-17T09:03:24.622Z,64.76
2023-05-17T09:04:24.193Z,63.14
2023-05-17T09:05:24.255Z,62.43
2023-05-17T09:06:24.189Z,62.02
2023-05-17T09:07:24.204Z,62.53
2023-05-17T09:08:24.128Z,62.87
2023-05-17T09:09:24.144Z,63.71
2023-05-17T09:10:24.100Z,63.67
2023-05-17T09:11:24.146Z,63.80
2023-05-17T09:12:25.692Z,64.75
2023-05-17T09:13:24.101Z,65.59
2023-05-17T09:14:24.051Z,65.97
2023-05-17T09:15:24.109Z,66.68
2023-05-17T09:16:24.038Z,64.75
2023-05-17T09:17:24.064Z,66.10
2023-05-17T09:18:24.116Z,66.58
2023-05-17T09:19:24.164Z,63.93
2023-05-17T09:20:24.066Z,64.20
2023-05-17T09:21:24.060Z,62.68
2023-05-17T09:22:23.955Z,61.79
2023-05-17T09:23:23.970Z,63.15
2023-05-17T09:24:25.200Z,64.06
2023-05-17T09:25:23.936Z,64.95
2023-05-17T09:26:23.909Z,67.83
2023-05-17T09:27:23.908Z,66.99
2023-05-17T09:28:23.888Z,63.78
2023-05-17T09:29:23.889Z,62.53
2023-05-17T09:30:25.179Z,61.78
2023-05-17T09:31:23.865Z,61.88
2023-05-17T09:32:23.887Z,63.00
2023-05-17T09:33:23.871Z,62.97
2023-05-17T09:34:23.814Z,64.06
2023-05-17T09:35:23.792Z,64.73
2023-05-17T09:36:23.766Z,63.69
2023-05-17T09:37:23.774Z,63.29
2023-05-17T09:38:25.353Z,64.10
2023-05-17T09:39:23.788Z,59.86
2023-05-17T09:40:23.733Z,60.81
2023-05-17T09:41:23.716Z,61.75
2023-05-17T09:42:23.748Z,62.41
2023-05-17T09:43:23.689Z,62.75
2023-05-17T09:44:24.765Z,65.22
2023-05-17T09:45:23.666Z,66.55
2023-05-17T09:46:23.679Z,65.02
2023-05-17T09:47:23.694Z,67.26
2023-05-17T09:48:23.733Z,66.31
2023-05-17T09:49:23.654Z,64.86
2023-05-17T09:50:26.106Z,64.90
2023-05-17T09:51:23.618Z,62.43
2023-05-17T09:52:24.554Z,60.53
2023-05-17T09:53:23.575Z,61.78
2023-05-17T09:54:23.554Z,64.93
2023-05-17T09:55:23.568Z,64.22
2023-05-17T09:56:23.511Z,63.02
2023-05-17T09:57:23.526Z,66.46
2023-05-17T09:58:23.478Z,66.12
2023-05-17T09:59:23.522Z,60.43
2023-05-17T10:00:23.489Z,64.36
2023-05-17T10:01:23.468Z,61.79
2023-05-17T10:02:23.485Z,61.66
2023-05-17T10:03:23.533Z,62.68
2023-05-17T10:04:23.401Z,63.96
2023-05-17T10:05:23.573Z,64.78
2023-05-17T10:06:38.476Z,63.96
2023-05-17T10:07:23.405Z,62.30
2023-05-17T10:08:23.363Z,63.62
2023-05-17T10:09:23.408Z,62.84
2023-05-17T10:10:23.342Z,61.88
2023-05-17T10:11:23.326Z,63.64
2023-05-17T10:12:24.326Z,65.88
2023-05-17T10:13:23.307Z,65.97
2023-05-17T10:14:23.665Z,68.85
2023-05-17T10:15:23.309Z,66.41
2023-05-17T10:16:23.257Z,68.38
2023-05-17T10:17:23.274Z,66.85
2023-05-17T10:18:23.256Z,67.77
2023-05-17T10:19:23.304Z,67.90
2023-05-17T10:20:23.192Z,69.53
2023-05-17T10:21:23.207Z,71.87
2023-05-17T10:22:24.034Z,71.56
2023-05-17T10:23:23.203Z,71.06
2023-05-17T10:24:23.186Z,70.55
2023-05-17T10:25:23.147Z,70.21
2023-05-17T10:26:23.153Z,68.38
2023-05-17T10:27:23.127Z,68.07
2023-05-17T10:28:23.093Z,67.16
2023-05-17T10:29:23.097Z,68.07
2023-05-17T10:30:23.077Z,68.68
2023-05-17T10:31:23.054Z,66.75
2023-05-17T10:32:23.600Z,67.77
2023-05-17T10:33:23.154Z,69.80
2023-05-17T10:34:23.114Z,71.23
2023-05-17T10:35:23.007Z,68.71
2023-05-17T10:36:23.021Z,68.10
2023-05-17T10:37:22.955Z,68.10
2023-05-17T10:38:26.276Z,68.71
2023-05-17T10:39:23.014Z,68.92
2023-05-17T10:40:22.949Z,67.39
2023-05-17T10:41:23.013Z,67.66
2023-05-17T10:42:22.932Z,67.46
2023-05-17T10:43:22.881Z,68.07
2023-05-17T10:44:22.958Z,69.90
2023-05-17T10:45:22.876Z,66.14
2023-05-17T10:46:22.869Z,69.49
2023-05-17T10:47:22.924Z,69.97
2023-05-17T10:48:22.892Z,67.13
2023-05-17T10:49:24.777Z,68.75
2023-05-17T10:50:22.840Z,70.38
2023-05-17T10:51:22.774Z,68.44
2023-05-17T10:52:22.800Z,68.14
2023-05-17T10:53:22.766Z,65.70
2023-05-17T10:54:22.749Z,66.92
2023-05-17T10:55:22.708Z,66.52
2023-05-17T10:56:22.746Z,67.33
2023-05-17T10:57:22.720Z,67.16
2023-05-17T10:58:22.704Z,68.24
2023-05-17T10:59:22.747Z,66.21
2023-05-17T11:00:22.713Z,66.75
2023-05-17T11:01:22.679Z,67.87
2023-05-17T11:02:22.683Z,67.46
2023-05-17T11:03:22.662Z,66.14
2023-05-17T11:04:22.655Z,67.26
2023-05-17T11:05:22.630Z,65.43
2023-05-17T11:06:25.559Z,67.16
2023-05-17T11:07:22.583Z,67.36
2023-05-17T11:08:22.580Z,64.92
2023-05-17T11:09:22.540Z,68.18
2023-05-17T11:10:22.551Z,68.99
2023-05-17T11:11:22.510Z,66.65
2023-05-17T11:12:22.519Z,69.09
2023-05-17T11:13:22.520Z,68.58
2023-05-17T11:14:22.489Z,68.58
2023-05-17T11:15:22.466Z,69.19
2023-05-17T11:16:22.466Z,68.31
2023-05-17T11:17:22.482Z,71.16
2023-05-17T11:18:30.057Z,70.34
2023-05-17T11:19:22.434Z,68.62
2023-05-17T11:20:22.539Z,67.60
2023-05-17T11:21:22.376Z,65.97
2023-05-17T11:22:22.389Z,64.44
2023-05-17T11:23:22.422Z,64.75
2023-05-17T11:24:22.526Z,64.44
2023-05-17T11:25:22.438Z,64.64
2023-05-17T11:26:22.412Z,65.46
2023-05-17T11:27:22.309Z,65.56
2023-05-17T11:28:22.610Z,66.78
2023-05-17T11:29:22.280Z,64.95
2023-05-17T11:30:22.278Z,64.34
2023-05-17T11:31:22.256Z,64.03
2023-05-17T11:32:22.283Z,64.23
2023-05-17T11:33:33.235Z,64.03
2023-05-17T11:34:22.319Z,65.56
2023-05-17T11:35:22.199Z,66.17
2023-05-17T11:36:22.208Z,66.47
2023-05-17T11:37:22.188Z,67.29
2023-05-17T11:38:22.198Z,65.33
2023-05-17T11:39:22.172Z,65.63
2023-05-17T11:40:22.159Z,64.11
2023-05-17T11:42:22.127Z,65.19
2023-05-17T11:43:22.077Z,66.31
2023-05-17T11:44:22.117Z,64.04
2023-05-17T11:45:23.357Z,64.96
2023-05-17T11:46:22.063Z,66.49
2023-05-17T11:47:22.088Z,62.62
2023-05-17T11:48:22.252Z,63.94
2023-05-17T11:49:34.040Z,63.40
2023-05-17T11:50:22.027Z,64.52
2023-05-17T11:51:24.399Z,61.78
2023-05-17T11:52:22.054Z,62.90
2023-05-17T11:53:21.979Z,63.17
2023-05-17T11:54:21.984Z,61.75
2023-05-17T11:55:21.932Z,61.04
2023-05-17T11:56:24.415Z,62.13
2023-05-17T11:57:21.921Z,62.13
2023-05-17T11:58:21.921Z,61.72
2023-05-17T11:59:21.911Z,62.33
2023-05-17T12:00:21.906Z,61.72
2023-05-17T12:01:21.861Z,62.56
2023-05-17T12:02:21.863Z,60.74
2023-05-17T12:03:21.825Z,59.95
2023-05-17T12:04:21.853Z,59.64
2023-05-17T12:05:21.812Z,62.21
2023-05-17T12:06:21.885Z,62.01
2023-05-17T12:07:21.765Z,61.60
2023-05-17T12:08:21.787Z,62.21
2023-05-17T12:09:21.749Z,61.51
2023-05-17T12:10:21.903Z,60.69
2023-05-17T12:11:21.756Z,60.89
2023-05-17T12:12:21.719Z,61.81
2023-05-17T12:13:21.710Z,61.71
2023-05-17T12:14:21.740Z,61.30
2023-05-17T12:15:21.701Z,60.21
2023-05-17T12:16:21.691Z,61.53
2023-05-17T12:17:21.639Z,61.83
2023-05-17T12:18:21.696Z,60.82
2023-05-17T12:19:21.907Z,58.78
2023-05-17T12:20:21.778Z,59.27
2023-05-17T12:21:21.658Z,62.21
2023-05-17T12:22:21.609Z,62.62
2023-05-17T12:23:21.568Z,62.70
2023-05-17T12:24:21.610Z,61.78
2023-05-17T12:25:21.524Z,61.88
2023-05-17T12:26:21.562Z,60.36
2023-05-17T12:27:21.564Z,58.53
2023-05-17T12:28:21.539Z,58.02
2023-05-17T12:29:21.476Z,59.84
2023-05-17T12:30:21.496Z,60.86
2023-05-17T12:31:21.462Z,60.86
2023-05-17T12:32:21.489Z,60.53
2023-05-17T12:33:21.514Z,61.24
2023-05-17T12:34:21.440Z,59.48
2023-05-17T12:35:21.396Z,58.17
2023-05-17T12:36:21.812Z,61.11
2023-05-17T12:37:21.393Z,59.86
2023-05-17T12:38:21.379Z,58.95
2023-05-17T12:39:21.338Z,57.43
2023-05-17T12:40:21.383Z,57.76
2023-05-17T12:41:21.312Z,58.78
2023-05-17T12:42:21.382Z,59.08
2023-05-17T12:43:21.275Z,62.84
2023-05-17T12:44:21.341Z,62.63
2023-05-17T12:45:21.439Z,57.28
2023-05-17T12:46:21.274Z,60.63
2023-05-17T12:47:21.242Z,64.09
2023-05-17T12:48:21.279Z,60.50
2023-05-17T12:49:21.301Z,61.62
2023-05-17T12:50:21.232Z,59.99
2023-05-17T12:51:21.223Z,60.20
2023-05-17T12:52:21.179Z,57.25
2023-05-17T12:53:21.164Z,58.88
2023-05-17T12:54:21.184Z,57.46